sensor_id;sensor_type;location;lat;lon;timestamp;P1;durP1;ratioP1;P2;durP2;ratioP2
19998;SDS011;10160;50.926;4.374;2022-12-29T00:02:25;2.20;;;0.97;;
19998;SDS011;10160;50.926;4.374;2022-12-29T00:04:51;2.17;;;1.10;;
19998;SDS011;10160;50.926;4.374;2022-12-29T00:07:16;4.10;;;1.50;;
19998;SDS011;10160;50.926;4.374;2022-12-29T00:09:42;3.47;;;1.40;;
19998;SDS011;10160;50.926;4.374;2022-12-29T00:12:08;5.93;;;1.50;;
19998;SDS011;10160;50.926;4.374;2022-12-29T00:14:34;3.30;;;1.40;;
19998;SDS011;10160;50.926;4.374;2022-12-29T00:17:18;1.67;;;0.93;;
19998;SDS011;10160;50.926;4.374;2022-12-29T00:19:43;3.10;;;1.00;;
19998;SDS011;10160;50.926;4.374;2022-12-29T00:22:27;2.43;;;1.30;;
19998;SDS011;10160;50.926;4.374;2022-12-29T00:25:12;6.10;;;1.00;;
19998;SDS011;10160;50.926;4.374;2022-12-29T00:27:57;3.43;;;1.10;;
19998;SDS011;10160;50.926;4.374;2022-12-29T00:30:41;4.17;;;1.00;;
19998;SDS011;10160;50.926;4.374;2022-12-29T00:33:26;1.60;;;0.80;;
19998;SDS011;10160;50.926;4.374;2022-12-29T00:38:43;2.80;;;1.00;;
19998;SDS011;10160;50.926;4.374;2022-12-29T00:41:31;3.97;;;0.90;;
19998;SDS011;10160;50.926;4.374;2022-12-29T00:44:16;4.20;;;1.20;;
19998;SDS011;10160;50.926;4.374;2022-12-29T00:46:42;2.67;;;0.97;;
19998;SDS011;10160;50.926;4.374;2022-12-29T00:49:09;5.77;;;1.30;;
19998;SDS011;10160;50.926;4.374;2022-12-29T00:51:56;2.17;;;1.00;;
19998;SDS011;10160;50.926;4.374;2022-12-29T00:54:27;2.77;;;1.20;;
19998;SDS011;10160;50.926;4.374;2022-12-29T00:56:54;7.07;;;0.90;;
19998;SDS011;10160;50.926;4.374;2022-12-29T00:59:20;3.53;;;1.00;;
19998;SDS011;10160;50.926;4.374;2022-12-29T01:01:46;5.53;;;1.23;;
19998;SDS011;10160;50.926;4.374;2022-12-29T01:04:12;4.57;;;1.00;;
19998;SDS011;10160;50.926;4.374;2022-12-29T01:06:39;8.17;;;1.17;;
19998;SDS011;10160;50.926;4.374;2022-12-29T01:09:05;10.90;;;1.27;;
19998;SDS011;10160;50.926;4.374;2022-12-29T01:11:50;3.87;;;1.13;;
19998;SDS011;10160;50.926;4.374;2022-12-29T01:14:16;8.90;;;0.73;;
19998;SDS011;10160;50.926;4.374;2022-12-29T01:16:43;3.83;;;0.93;;
19998;SDS011;10160;50.926;4.374;2022-12-29T01:19:09;6.13;;;1.00;;
19998;SDS011;10160;50.926;4.374;2022-12-29T01:21:34;4.80;;;0.93;;
19998;SDS011;10160;50.926;4.374;2022-12-29T01:24:00;2.57;;;1.00;;
19998;SDS011;10160;50.926;4.374;2022-12-29T01:26:26;2.63;;;0.87;;
19998;SDS011;10160;50.926;4.374;2022-12-29T01:28:51;1.97;;;0.70;;
19998;SDS011;10160;50.926;4.374;2022-12-29T01:31:17;1.60;;;0.90;;
19998;SDS011;10160;50.926;4.374;2022-12-29T01:33:43;3.17;;;0.90;;
19998;SDS011;10160;50.926;4.374;2022-12-29T01:36:10;2.60;;;0.83;;
19998;SDS011;10160;50.926;4.374;2022-12-29T01:38:41;5.23;;;1.20;;
19998;SDS011;10160;50.926;4.374;2022-12-29T01:41:07;2.57;;;1.10;;
19998;SDS011;10160;50.926;4.374;2022-12-29T01:43:53;3.30;;;1.07;;
19998;SDS011;10160;50.926;4.374;2022-12-29T01:49:16;4.23;;;1.07;;
19998;SDS011;10160;50.926;4.374;2022-12-29T01:52:02;7.87;;;1.43;;
19998;SDS011;10160;50.926;4.374;2022-12-29T01:54:33;5.13;;;1.20;;
19998;SDS011;10160;50.926;4.374;2022-12-29T01:57:08;3.63;;;1.00;;
19998;SDS011;10160;50.926;4.374;2022-12-29T01:59:39;2.90;;;1.10;;
19998;SDS011;10160;50.926;4.374;2022-12-29T02:02:11;3.13;;;1.03;;
19998;SDS011;10160;50.926;4.374;2022-12-29T02:04:36;4.37;;;1.00;;
19998;SDS011;10160;50.926;4.374;2022-12-29T02:07:09;3.07;;;1.20;;
19998;SDS011;10160;50.926;4.374;2022-12-29T02:09:41;3.20;;;0.77;;
19998;SDS011;10160;50.926;4.374;2022-12-29T02:12:08;5.40;;;1.00;;
19998;SDS011;10160;50.926;4.374;2022-12-29T02:14:35;2.50;;;1.10;;
19998;SDS011;10160;50.926;4.374;2022-12-29T02:23:04;11.93;;;0.80;;
19998;SDS011;10160;50.926;4.374;2022-12-29T02:28:41;2.67;;;0.87;;
19998;SDS011;10160;50.926;4.374;2022-12-29T02:31:31;6.67;;;1.33;;
19998;SDS011;10160;50.926;4.374;2022-12-29T02:34:10;3.43;;;1.30;;
19998;SDS011;10160;50.926;4.374;2022-12-29T02:42:46;3.43;;;0.97;;
19998;SDS011;10160;50.926;4.374;2022-12-29T02:45:31;5.30;;;0.90;;
19998;SDS011;10160;50.926;4.374;2022-12-29T02:51:50;3.03;;;0.60;;
19998;SDS011;10160;50.926;4.374;2022-12-29T02:54:09;3.50;;;0.80;;
19998;SDS011;10160;50.926;4.374;2022-12-29T02:56:54;3.47;;;0.60;;
19998;SDS011;10160;50.926;4.374;2022-12-29T02:59:19;5.80;;;0.80;;
19998;SDS011;10160;50.926;4.374;2022-12-29T03:01:58;6.20;;;0.83;;
19998;SDS011;10160;50.926;4.374;2022-12-29T03:04:50;5.53;;;0.70;;
19998;SDS011;10160;50.926;4.374;2022-12-29T03:10:29;4.27;;;1.00;;
19998;SDS011;10160;50.926;4.374;2022-12-29T03:18:43;8.30;;;1.53;;
19998;SDS011;10160;50.926;4.374;2022-12-29T03:24:38;4.93;;;1.43;;
19998;SDS011;10160;50.926;4.374;2022-12-29T03:27:09;7.63;;;1.20;;
19998;SDS011;10160;50.926;4.374;2022-12-29T03:29:45;3.17;;;1.00;;
19998;SDS011;10160;50.926;4.374;2022-12-29T03:32:18;3.13;;;1.27;;
19998;SDS011;10160;50.926;4.374;2022-12-29T03:34:46;7.77;;;1.13;;
19998;SDS011;10160;50.926;4.374;2022-12-29T03:37:18;4.33;;;1.27;;
19998;SDS011;10160;50.926;4.374;2022-12-29T03:39:48;2.43;;;0.80;;
19998;SDS011;10160;50.926;4.374;2022-12-29T03:42:15;6.03;;;1.20;;
19998;SDS011;10160;50.926;4.374;2022-12-29T03:44:44;7.87;;;0.87;;
19998;SDS011;10160;50.926;4.374;2022-12-29T03:47:11;3.43;;;1.03;;
19998;SDS011;10160;50.926;4.374;2022-12-29T03:49:38;1.10;;;0.60;;
19998;SDS011;10160;50.926;4.374;2022-12-29T03:52:04;3.37;;;1.00;;
19998;SDS011;10160;50.926;4.374;2022-12-29T03:54:30;5.27;;;0.90;;
19998;SDS011;10160;50.926;4.374;2022-12-29T03:56:55;3.50;;;1.00;;
19998;SDS011;10160;50.926;4.374;2022-12-29T03:59:21;5.93;;;1.10;;
19998;SDS011;10160;50.926;4.374;2022-12-29T04:01:47;4.13;;;1.00;;
19998;SDS011;10160;50.926;4.374;2022-12-29T04:04:12;3.73;;;0.67;;
19998;SDS011;10160;50.926;4.374;2022-12-29T04:06:38;3.57;;;0.90;;
19998;SDS011;10160;50.926;4.374;2022-12-29T04:09:04;6.53;;;1.40;;
19998;SDS011;10160;50.926;4.374;2022-12-29T04:11:30;6.13;;;1.27;;
19998;SDS011;10160;50.926;4.374;2022-12-29T04:13:56;4.97;;;1.20;;
19998;SDS011;10160;50.926;4.374;2022-12-29T04:16:21;4.77;;;1.00;;
19998;SDS011;10160;50.926;4.374;2022-12-29T04:18:47;3.87;;;1.13;;
19998;SDS011;10160;50.926;4.374;2022-12-29T04:21:13;6.23;;;1.10;;
19998;SDS011;10160;50.926;4.374;2022-12-29T04:23:38;3.03;;;1.00;;
19998;SDS011;10160;50.926;4.374;2022-12-29T04:26:05;5.03;;;1.20;;
19998;SDS011;10160;50.926;4.374;2022-12-29T04:28:32;3.43;;;1.00;;
19998;SDS011;10160;50.926;4.374;2022-12-29T04:30:58;3.67;;;0.80;;
19998;SDS011;10160;50.926;4.374;2022-12-29T04:33:24;5.57;;;1.20;;
19998;SDS011;10160;50.926;4.374;2022-12-29T04:35:50;4.70;;;0.90;;
19998;SDS011;10160;50.926;4.374;2022-12-29T04:38:19;7.27;;;1.00;;
19998;SDS011;10160;50.926;4.374;2022-12-29T04:40:46;3.63;;;1.10;;
19998;SDS011;10160;50.926;4.374;2022-12-29T04:43:12;4.83;;;1.33;;
19998;SDS011;10160;50.926;4.374;2022-12-29T04:45:38;6.10;;;1.00;;
19998;SDS011;10160;50.926;4.374;2022-12-29T04:48:11;3.43;;;1.00;;
19998;SDS011;10160;50.926;4.374;2022-12-29T04:50:36;5.13;;;1.10;;
19998;SDS011;10160;50.926;4.374;2022-12-29T04:53:02;4.53;;;1.10;;
19998;SDS011;10160;50.926;4.374;2022-12-29T04:55:28;9.10;;;1.50;;
19998;SDS011;10160;50.926;4.374;2022-12-29T04:57:54;5.23;;;1.00;;
19998;SDS011;10160;50.926;4.374;2022-12-29T05:00:19;5.33;;;1.20;;
19998;SDS011;10160;50.926;4.374;2022-12-29T05:02:45;5.20;;;1.17;;
19998;SDS011;10160;50.926;4.374;2022-12-29T05:05:11;3.33;;;0.80;;
19998;SDS011;10160;50.926;4.374;2022-12-29T05:07:37;5.17;;;0.97;;
19998;SDS011;10160;50.926;4.374;2022-12-29T05:10:03;6.20;;;0.90;;
19998;SDS011;10160;50.926;4.374;2022-12-29T05:12:33;6.23;;;1.10;;
19998;SDS011;10160;50.926;4.374;2022-12-29T05:15:00;4.67;;;1.17;;
19998;SDS011;10160;50.926;4.374;2022-12-29T05:17:27;6.70;;;1.67;;
19998;SDS011;10160;50.926;4.374;2022-12-29T05:19:53;7.17;;;1.20;;
19998;SDS011;10160;50.926;4.374;2022-12-29T05:22:19;6.80;;;1.20;;
19998;SDS011;10160;50.926;4.374;2022-12-29T05:24:45;4.53;;;1.27;;
19998;SDS011;10160;50.926;4.374;2022-12-29T05:27:11;6.90;;;1.20;;
19998;SDS011;10160;50.926;4.374;2022-12-29T05:29:36;7.10;;;1.63;;
19998;SDS011;10160;50.926;4.374;2022-12-29T05:32:02;9.33;;;2.00;;
19998;SDS011;10160;50.926;4.374;2022-12-29T05:34:28;10.90;;;1.90;;
19998;SDS011;10160;50.926;4.374;2022-12-29T05:36:53;7.27;;;1.57;;
19998;SDS011;10160;50.926;4.374;2022-12-29T05:39:19;6.30;;;1.63;;
19998;SDS011;10160;50.926;4.374;2022-12-29T05:41:45;11.07;;;1.50;;
19998;SDS011;10160;50.926;4.374;2022-12-29T05:44:11;9.47;;;1.63;;
19998;SDS011;10160;50.926;4.374;2022-12-29T05:46:36;6.03;;;1.30;;
19998;SDS011;10160;50.926;4.374;2022-12-29T05:49:02;7.13;;;1.50;;
19998;SDS011;10160;50.926;4.374;2022-12-29T05:51:28;5.00;;;1.20;;
19998;SDS011;10160;50.926;4.374;2022-12-29T05:53:53;11.47;;;1.73;;
19998;SDS011;10160;50.926;4.374;2022-12-29T05:56:19;5.77;;;1.30;;
19998;SDS011;10160;50.926;4.374;2022-12-29T05:58:45;11.27;;;2.03;;
19998;SDS011;10160;50.926;4.374;2022-12-29T06:01:10;9.83;;;1.50;;
19998;SDS011;10160;50.926;4.374;2022-12-29T06:03:36;11.63;;;2.20;;
19998;SDS011;10160;50.926;4.374;2022-12-29T06:06:02;3.63;;;1.20;;
19998;SDS011;10160;50.926;4.374;2022-12-29T06:08:27;6.97;;;1.20;;
19998;SDS011;10160;50.926;4.374;2022-12-29T06:10:53;6.47;;;1.57;;
19998;SDS011;10160;50.926;4.374;2022-12-29T06:13:19;10.00;;;1.60;;
19998;SDS011;10160;50.926;4.374;2022-12-29T06:15:44;10.47;;;1.67;;
19998;SDS011;10160;50.926;4.374;2022-12-29T06:18:10;8.23;;;1.63;;
19998;SDS011;10160;50.926;4.374;2022-12-29T06:20:35;8.77;;;1.80;;
19998;SDS011;10160;50.926;4.374;2022-12-29T06:23:01;8.93;;;1.60;;
19998;SDS011;10160;50.926;4.374;2022-12-29T06:25:27;4.80;;;1.17;;
19998;SDS011;10160;50.926;4.374;2022-12-29T06:27:55;8.87;;;1.60;;
19998;SDS011;10160;50.926;4.374;2022-12-29T06:30:21;9.70;;;1.67;;
19998;SDS011;10160;50.926;4.374;2022-12-29T06:32:46;6.17;;;1.30;;
19998;SDS011;10160;50.926;4.374;2022-12-29T06:35:12;7.27;;;1.80;;
19998;SDS011;10160;50.926;4.374;2022-12-29T06:37:38;8.43;;;1.60;;
19998;SDS011;10160;50.926;4.374;2022-12-29T06:40:04;7.63;;;2.17;;
19998;SDS011;10160;50.926;4.374;2022-12-29T06:42:30;7.40;;;1.60;;
19998;SDS011;10160;50.926;4.374;2022-12-29T06:44:56;8.07;;;1.53;;
19998;SDS011;10160;50.926;4.374;2022-12-29T06:47:23;14.33;;;2.30;;
19998;SDS011;10160;50.926;4.374;2022-12-29T06:49:49;9.03;;;1.30;;
19998;SDS011;10160;50.926;4.374;2022-12-29T06:52:15;8.67;;;1.60;;
19998;SDS011;10160;50.926;4.374;2022-12-29T06:54:41;11.80;;;1.77;;
19998;SDS011;10160;50.926;4.374;2022-12-29T06:57:06;12.37;;;1.60;;
19998;SDS011;10160;50.926;4.374;2022-12-29T06:59:32;7.00;;;1.70;;
19998;SDS011;10160;50.926;4.374;2022-12-29T07:01:57;14.30;;;2.37;;
19998;SDS011;10160;50.926;4.374;2022-12-29T07:04:23;12.57;;;2.17;;
19998;SDS011;10160;50.926;4.374;2022-12-29T07:06:49;13.80;;;2.23;;
19998;SDS011;10160;50.926;4.374;2022-12-29T07:09:14;6.73;;;1.23;;
19998;SDS011;10160;50.926;4.374;2022-12-29T07:11:40;9.83;;;1.57;;
19998;SDS011;10160;50.926;4.374;2022-12-29T07:14:06;5.93;;;1.63;;
19998;SDS011;10160;50.926;4.374;2022-12-29T07:16:32;10.63;;;1.63;;
19998;SDS011;10160;50.926;4.374;2022-12-29T07:18:59;9.33;;;1.40;;
19998;SDS011;10160;50.926;4.374;2022-12-29T07:21:24;8.57;;;1.20;;
19998;SDS011;10160;50.926;4.374;2022-12-29T07:23:50;3.13;;;1.27;;
19998;SDS011;10160;50.926;4.374;2022-12-29T07:26:16;12.13;;;1.90;;
19998;SDS011;10160;50.926;4.374;2022-12-29T07:28:44;10.17;;;1.60;;
19998;SDS011;10160;50.926;4.374;2022-12-29T07:31:14;9.50;;;1.50;;
19998;SDS011;10160;50.926;4.374;2022-12-29T07:33:41;6.83;;;1.43;;
19998;SDS011;10160;50.926;4.374;2022-12-29T07:36:08;14.33;;;2.17;;
19998;SDS011;10160;50.926;4.374;2022-12-29T07:38:34;12.53;;;1.70;;
19998;SDS011;10160;50.926;4.374;2022-12-29T07:40:59;9.70;;;1.73;;
19998;SDS011;10160;50.926;4.374;2022-12-29T07:43:25;8.50;;;1.53;;
19998;SDS011;10160;50.926;4.374;2022-12-29T07:45:51;9.33;;;1.90;;
19998;SDS011;10160;50.926;4.374;2022-12-29T07:48:16;12.47;;;2.80;;
19998;SDS011;10160;50.926;4.374;2022-12-29T07:50:42;14.53;;;2.13;;
19998;SDS011;10160;50.926;4.374;2022-12-29T07:53:08;11.70;;;1.97;;
19998;SDS011;10160;50.926;4.374;2022-12-29T07:55:34;10.03;;;2.30;;
19998;SDS011;10160;50.926;4.374;2022-12-29T07:57:59;9.40;;;1.80;;
19998;SDS011;10160;50.926;4.374;2022-12-29T08:00:25;13.23;;;2.03;;
19998;SDS011;10160;50.926;4.374;2022-12-29T08:02:51;13.73;;;2.20;;
19998;SDS011;10160;50.926;4.374;2022-12-29T08:05:17;7.90;;;1.87;;
19998;SDS011;10160;50.926;4.374;2022-12-29T08:07:43;13.90;;;1.93;;
19998;SDS011;10160;50.926;4.374;2022-12-29T08:10:10;12.17;;;2.20;;
19998;SDS011;10160;50.926;4.374;2022-12-29T08:12:39;9.83;;;2.27;;
19998;SDS011;10160;50.926;4.374;2022-12-29T08:15:06;6.50;;;2.33;;
19998;SDS011;10160;50.926;4.374;2022-12-29T08:17:33;8.43;;;1.77;;
19998;SDS011;10160;50.926;4.374;2022-12-29T08:19:59;5.57;;;1.70;;
19998;SDS011;10160;50.926;4.374;2022-12-29T08:22:24;9.63;;;2.13;;
19998;SDS011;10160;50.926;4.374;2022-12-29T08:24:50;11.73;;;1.20;;
19998;SDS011;10160;50.926;4.374;2022-12-29T08:27:16;10.70;;;1.80;;
19998;SDS011;10160;50.926;4.374;2022-12-29T08:29:42;13.63;;;1.63;;
19998;SDS011;10160;50.926;4.374;2022-12-29T08:32:08;10.53;;;1.73;;
19998;SDS011;10160;50.926;4.374;2022-12-29T08:34:34;16.80;;;2.20;;
19998;SDS011;10160;50.926;4.374;2022-12-29T08:36:59;12.70;;;1.90;;
19998;SDS011;10160;50.926;4.374;2022-12-29T08:39:25;8.87;;;1.67;;
19998;SDS011;10160;50.926;4.374;2022-12-29T08:41:51;6.60;;;1.40;;
19998;SDS011;10160;50.926;4.374;2022-12-29T08:44:16;11.83;;;2.00;;
19998;SDS011;10160;50.926;4.374;2022-12-29T08:46:42;11.57;;;2.13;;
19998;SDS011;10160;50.926;4.374;2022-12-29T08:49:08;10.63;;;1.47;;
19998;SDS011;10160;50.926;4.374;2022-12-29T08:51:33;9.10;;;1.97;;
19998;SDS011;10160;50.926;4.374;2022-12-29T08:53:59;15.40;;;2.13;;
19998;SDS011;10160;50.926;4.374;2022-12-29T08:56:25;8.33;;;1.80;;
19998;SDS011;10160;50.926;4.374;2022-12-29T08:58:51;10.77;;;1.90;;
19998;SDS011;10160;50.926;4.374;2022-12-29T09:01:17;5.47;;;1.50;;
19998;SDS011;10160;50.926;4.374;2022-12-29T09:03:43;12.00;;;1.63;;
19998;SDS011;10160;50.926;4.374;2022-12-29T09:06:09;6.20;;;1.60;;
19998;SDS011;10160;50.926;4.374;2022-12-29T09:08:35;10.80;;;2.47;;
19998;SDS011;10160;50.926;4.374;2022-12-29T09:11:08;7.07;;;1.93;;
19998;SDS011;10160;50.926;4.374;2022-12-29T09:13:34;11.60;;;1.60;;
19998;SDS011;10160;50.926;4.374;2022-12-29T09:16:00;7.23;;;1.93;;
19998;SDS011;10160;50.926;4.374;2022-12-29T09:18:26;12.73;;;2.10;;
19998;SDS011;10160;50.926;4.374;2022-12-29T09:20:58;12.43;;;2.33;;
19998;SDS011;10160;50.926;4.374;2022-12-29T09:23:25;10.17;;;1.83;;
19998;SDS011;10160;50.926;4.374;2022-12-29T09:25:51;18.87;;;2.30;;
19998;SDS011;10160;50.926;4.374;2022-12-29T09:28:17;14.40;;;2.40;;
19998;SDS011;10160;50.926;4.374;2022-12-29T09:30:43;14.47;;;2.87;;
19998;SDS011;10160;50.926;4.374;2022-12-29T09:33:09;6.83;;;1.80;;
19998;SDS011;10160;50.926;4.374;2022-12-29T09:35:34;14.07;;;3.20;;
19998;SDS011;10160;50.926;4.374;2022-12-29T09:38:01;16.40;;;1.97;;
19998;SDS011;10160;50.926;4.374;2022-12-29T09:40:28;14.53;;;2.50;;
19998;SDS011;10160;50.926;4.374;2022-12-29T09:43:10;12.23;;;2.30;;
19998;SDS011;10160;50.926;4.374;2022-12-29T09:46:00;13.77;;;2.60;;
19998;SDS011;10160;50.926;4.374;2022-12-29T09:48:41;14.67;;;2.83;;
19998;SDS011;10160;50.926;4.374;2022-12-29T09:51:16;12.77;;;2.30;;
19998;SDS011;10160;50.926;4.374;2022-12-29T09:53:46;9.80;;;1.70;;
19998;SDS011;10160;50.926;4.374;2022-12-29T09:56:21;16.23;;;2.23;;
19998;SDS011;10160;50.926;4.374;2022-12-29T09:58:59;7.40;;;1.40;;
19998;SDS011;10160;50.926;4.374;2022-12-29T10:01:46;11.27;;;1.87;;
19998;SDS011;10160;50.926;4.374;2022-12-29T10:04:45;12.07;;;2.27;;
19998;SDS011;10160;50.926;4.374;2022-12-29T10:12:50;16.03;;;2.30;;
19998;SDS011;10160;50.926;4.374;2022-12-29T10:20:53;8.30;;;1.83;;
19998;SDS011;10160;50.926;4.374;2022-12-29T10:23:40;15.43;;;2.13;;
19998;SDS011;10160;50.926;4.374;2022-12-29T10:26:18;13.73;;;2.53;;
19998;SDS011;10160;50.926;4.374;2022-12-29T10:28:54;10.73;;;1.67;;
19998;SDS011;10160;50.926;4.374;2022-12-29T10:31:25;8.60;;;1.93;;
19998;SDS011;10160;50.926;4.374;2022-12-29T10:34:10;12.37;;;2.20;;
19998;SDS011;10160;50.926;4.374;2022-12-29T10:36:48;13.50;;;2.60;;
19998;SDS011;10160;50.926;4.374;2022-12-29T10:39:21;10.13;;;2.07;;
19998;SDS011;10160;50.926;4.374;2022-12-29T10:42:01;9.00;;;1.60;;
19998;SDS011;10160;50.926;4.374;2022-12-29T10:44:34;11.00;;;2.10;;
19998;SDS011;10160;50.926;4.374;2022-12-29T10:47:08;15.07;;;2.20;;
19998;SDS011;10160;50.926;4.374;2022-12-29T10:49:39;8.80;;;2.50;;
19998;SDS011;10160;50.926;4.374;2022-12-29T10:52:07;12.47;;;2.23;;
19998;SDS011;10160;50.926;4.374;2022-12-29T10:57:25;9.30;;;1.80;;
19998;SDS011;10160;50.926;4.374;2022-12-29T11:00:10;15.80;;;2.37;;
19998;SDS011;10160;50.926;4.374;2022-12-29T11:05:50;19.10;;;1.73;;
19998;SDS011;10160;50.926;4.374;2022-12-29T11:08:25;10.43;;;1.70;;
19998;SDS011;10160;50.926;4.374;2022-12-29T11:11:06;6.30;;;1.57;;
19998;SDS011;10160;50.926;4.374;2022-12-29T11:13:35;11.33;;;1.77;;
19998;SDS011;10160;50.926;4.374;2022-12-29T11:16:12;11.03;;;2.17;;
19998;SDS011;10160;50.926;4.374;2022-12-29T11:18:38;7.63;;;1.33;;
19998;SDS011;10160;50.926;4.374;2022-12-29T11:21:31;19.93;;;2.27;;
19998;SDS011;10160;50.926;4.374;2022-12-29T11:24:36;11.53;;;2.00;;
19998;SDS011;10160;50.926;4.374;2022-12-29T11:26:50;9.10;;;2.40;;
19998;SDS011;10160;50.926;4.374;2022-12-29T11:31:50;9.77;;;2.27;;
19998;SDS011;10160;50.926;4.374;2022-12-29T11:36:50;12.20;;;2.27;;
19998;SDS011;10160;50.926;4.374;2022-12-29T11:42:01;12.00;;;2.57;;
19998;SDS011;10160;50.926;4.374;2022-12-29T11:44:29;7.80;;;1.63;;
19998;SDS011;10160;50.926;4.374;2022-12-29T11:47:02;8.97;;;1.37;;
19998;SDS011;10160;50.926;4.374;2022-12-29T11:49:28;12.43;;;2.40;;
19998;SDS011;10160;50.926;4.374;2022-12-29T11:51:54;10.80;;;1.97;;
19998;SDS011;10160;50.926;4.374;2022-12-29T11:56:55;14.40;;;2.13;;
19998;SDS011;10160;50.926;4.374;2022-12-29T12:01:55;14.87;;;2.03;;
19998;SDS011;10160;50.926;4.374;2022-12-29T12:04:23;10.00;;;1.80;;
19998;SDS011;10160;50.926;4.374;2022-12-29T12:07:00;12.97;;;2.50;;
19998;SDS011;10160;50.926;4.374;2022-12-29T12:09:38;9.67;;;2.33;;
19998;SDS011;10160;50.926;4.374;2022-12-29T12:12:18;14.13;;;2.50;;
19998;SDS011;10160;50.926;4.374;2022-12-29T12:14:54;14.90;;;2.03;;
19998;SDS011;10160;50.926;4.374;2022-12-29T12:17:37;14.03;;;2.77;;
19998;SDS011;10160;50.926;4.374;2022-12-29T12:20:19;8.80;;;2.23;;
19998;SDS011;10160;50.926;4.374;2022-12-29T12:23:12;8.50;;;1.73;;
19998;SDS011;10160;50.926;4.374;2022-12-29T12:26:21;11.37;;;1.60;;
19998;SDS011;10160;50.926;4.374;2022-12-29T12:29:01;7.30;;;1.33;;
19998;SDS011;10160;50.926;4.374;2022-12-29T12:34:19;6.47;;;1.63;;
19998;SDS011;10160;50.926;4.374;2022-12-29T12:36:55;12.17;;;2.37;;
19998;SDS011;10160;50.926;4.374;2022-12-29T12:39:49;10.97;;;2.40;;
19998;SDS011;10160;50.926;4.374;2022-12-29T12:46:01;12.00;;;2.30;;
19998;SDS011;10160;50.926;4.374;2022-12-29T12:48:51;8.60;;;1.87;;
19998;SDS011;10160;50.926;4.374;2022-12-29T12:54:59;13.47;;;2.10;;
19998;SDS011;10160;50.926;4.374;2022-12-29T12:57:33;12.27;;;1.87;;
19998;SDS011;10160;50.926;4.374;2022-12-29T13:00:19;11.00;;;1.90;;
19998;SDS011;10160;50.926;4.374;2022-12-29T13:05:42;10.90;;;1.90;;
19998;SDS011;10160;50.926;4.374;2022-12-29T13:16:41;9.37;;;1.97;;
19998;SDS011;10160;50.926;4.374;2022-12-29T13:28:15;3.97;;;1.47;;
19998;SDS011;10160;50.926;4.374;2022-12-29T13:41:47;6.73;;;1.63;;
19998;SDS011;10160;50.926;4.374;2022-12-29T13:44:18;9.13;;;1.60;;
19998;SDS011;10160;50.926;4.374;2022-12-29T13:46:50;7.33;;;1.50;;
19998;SDS011;10160;50.926;4.374;2022-12-29T13:54:33;13.07;;;2.73;;
19998;SDS011;10160;50.926;4.374;2022-12-29T13:57:28;7.07;;;2.83;;
19998;SDS011;10160;50.926;4.374;2022-12-29T14:00:19;8.13;;;2.30;;
19998;SDS011;10160;50.926;4.374;2022-12-29T14:07:43;9.30;;;1.90;;
19998;SDS011;10160;50.926;4.374;2022-12-29T14:13:20;10.13;;;1.87;;
19998;SDS011;10160;50.926;4.374;2022-12-29T14:15:51;16.77;;;2.80;;
19998;SDS011;10160;50.926;4.374;2022-12-29T14:18:25;9.40;;;1.80;;
19998;SDS011;10160;50.926;4.374;2022-12-29T14:23:57;11.30;;;2.30;;
19998;SDS011;10160;50.926;4.374;2022-12-29T14:26:44;5.07;;;1.43;;
19998;SDS011;10160;50.926;4.374;2022-12-29T14:31:54;9.43;;;1.53;;
19998;SDS011;10160;50.926;4.374;2022-12-29T14:41:59;6.03;;;1.30;;
19998;SDS011;10160;50.926;4.374;2022-12-29T14:44:28;4.30;;;1.00;;
19998;SDS011;10160;50.926;4.374;2022-12-29T14:49:27;6.13;;;1.37;;
19998;SDS011;10160;50.926;4.374;2022-12-29T14:52:04;4.40;;;1.30;;
19998;SDS011;10160;50.926;4.374;2022-12-29T14:57:12;9.93;;;1.30;;
19998;SDS011;10160;50.926;4.374;2022-12-29T14:59:45;10.00;;;1.40;;
19998;SDS011;10160;50.926;4.374;2022-12-29T15:02:22;6.47;;;1.50;;
19998;SDS011;10160;50.926;4.374;2022-12-29T15:04:50;4.93;;;1.23;;
19998;SDS011;10160;50.926;4.374;2022-12-29T15:07:18;4.00;;;1.43;;
19998;SDS011;10160;50.926;4.374;2022-12-29T15:09:46;4.27;;;1.40;;
19998;SDS011;10160;50.926;4.374;2022-12-29T15:12:35;10.47;;;1.43;;
19998;SDS011;10160;50.926;4.374;2022-12-29T15:15:01;5.40;;;1.37;;
19998;SDS011;10160;50.926;4.374;2022-12-29T15:17:41;12.20;;;2.33;;
19998;SDS011;10160;50.926;4.374;2022-12-29T15:22:52;9.47;;;1.87;;
19998;SDS011;10160;50.926;4.374;2022-12-29T15:25:21;6.17;;;1.33;;
19998;SDS011;10160;50.926;4.374;2022-12-29T15:27:50;10.33;;;1.70;;
19998;SDS011;10160;50.926;4.374;2022-12-29T15:30:18;4.80;;;1.80;;
19998;SDS011;10160;50.926;4.374;2022-12-29T15:32:44;5.80;;;1.50;;
19998;SDS011;10160;50.926;4.374;2022-12-29T15:37:57;19.00;;;2.30;;
19998;SDS011;10160;50.926;4.374;2022-12-29T15:40:25;13.10;;;2.43;;
19998;SDS011;10160;50.926;4.374;2022-12-29T15:45:34;13.70;;;1.70;;
19998;SDS011;10160;50.926;4.374;2022-12-29T15:48:00;11.47;;;2.27;;
19998;SDS011;10160;50.926;4.374;2022-12-29T15:50:27;6.67;;;1.80;;
19998;SDS011;10160;50.926;4.374;2022-12-29T15:52:58;12.57;;;2.10;;
19998;SDS011;10160;50.926;4.374;2022-12-29T15:55:35;12.97;;;1.73;;
19998;SDS011;10160;50.926;4.374;2022-12-29T15:58:04;10.57;;;3.03;;
19998;SDS011;10160;50.926;4.374;2022-12-29T16:00:32;9.63;;;1.87;;
19998;SDS011;10160;50.926;4.374;2022-12-29T16:03:01;5.37;;;2.00;;
19998;SDS011;10160;50.926;4.374;2022-12-29T16:05:33;13.13;;;2.00;;
19998;SDS011;10160;50.926;4.374;2022-12-29T16:08:00;9.60;;;2.30;;
19998;SDS011;10160;50.926;4.374;2022-12-29T16:10:35;16.03;;;2.57;;
19998;SDS011;10160;50.926;4.374;2022-12-29T16:13:25;8.63;;;2.03;;
19998;SDS011;10160;50.926;4.374;2022-12-29T16:15:49;12.10;;;2.40;;
19998;SDS011;10160;50.926;4.374;2022-12-29T16:18:24;9.40;;;2.17;;
19998;SDS011;10160;50.926;4.374;2022-12-29T16:20:56;8.87;;;2.07;;
19998;SDS011;10160;50.926;4.374;2022-12-29T16:23:26;12.97;;;2.40;;
19998;SDS011;10160;50.926;4.374;2022-12-29T16:25:54;9.97;;;2.40;;
19998;SDS011;10160;50.926;4.374;2022-12-29T16:28:29;18.90;;;3.47;;
19998;SDS011;10160;50.926;4.374;2022-12-29T16:31:05;13.73;;;2.47;;
19998;SDS011;10160;50.926;4.374;2022-12-29T16:33:50;11.03;;;3.30;;
19998;SDS011;10160;50.926;4.374;2022-12-29T16:36:33;9.23;;;3.07;;
19998;SDS011;10160;50.926;4.374;2022-12-29T16:41:48;7.80;;;2.47;;
19998;SDS011;10160;50.926;4.374;2022-12-29T16:49:35;13.33;;;3.60;;
19998;SDS011;10160;50.926;4.374;2022-12-29T16:52:13;19.70;;;3.83;;
19998;SDS011;10160;50.926;4.374;2022-12-29T16:54:47;11.10;;;2.70;;
19998;SDS011;10160;50.926;4.374;2022-12-29T16:57:53;12.53;;;2.50;;
19998;SDS011;10160;50.926;4.374;2022-12-29T17:02:49;13.13;;;3.33;;
19998;SDS011;10160;50.926;4.374;2022-12-29T17:05:18;16.83;;;2.83;;
19998;SDS011;10160;50.926;4.374;2022-12-29T17:07:44;16.60;;;3.53;;
19998;SDS011;10160;50.926;4.374;2022-12-29T17:10:11;13.03;;;2.80;;
19998;SDS011;10160;50.926;4.374;2022-12-29T17:12:38;16.17;;;3.30;;
19998;SDS011;10160;50.926;4.374;2022-12-29T17:15:12;18.63;;;3.60;;
19998;SDS011;10160;50.926;4.374;2022-12-29T17:17:56;16.07;;;3.03;;
19998;SDS011;10160;50.926;4.374;2022-12-29T17:20:28;14.30;;;2.57;;
19998;SDS011;10160;50.926;4.374;2022-12-29T17:22:55;15.90;;;2.83;;
19998;SDS011;10160;50.926;4.374;2022-12-29T17:25:23;22.37;;;3.80;;
19998;SDS011;10160;50.926;4.374;2022-12-29T17:28:04;19.07;;;3.63;;
19998;SDS011;10160;50.926;4.374;2022-12-29T17:30:31;18.90;;;3.17;;
19998;SDS011;10160;50.926;4.374;2022-12-29T17:33:00;14.90;;;2.87;;
19998;SDS011;10160;50.926;4.374;2022-12-29T17:35:29;12.13;;;2.57;;
19998;SDS011;10160;50.926;4.374;2022-12-29T17:37:55;14.27;;;3.10;;
19998;SDS011;10160;50.926;4.374;2022-12-29T17:40:21;17.60;;;2.70;;
19998;SDS011;10160;50.926;4.374;2022-12-29T17:42:55;23.07;;;3.73;;